sensor_id;sensor_type;location;lat;lon;timestamp;temperature;humidity
22456;DHT22;11395;53.204;6.502;2022-12-10T00:09:48;21.00;53.60
22456;DHT22;11395;53.204;6.502;2022-12-10T00:12:14;20.80;54.20
22456;DHT22;11395;53.204;6.502;2022-12-10T00:14:40;20.80;54.40
22456;DHT22;11395;53.204;6.502;2022-12-10T00:17:06;20.70;54.40
22456;DHT22;11395;53.204;6.502;2022-12-10T00:19:33;20.70;54.30
22456;DHT22;11395;53.204;6.502;2022-12-10T00:21:59;20.70;54.30
22456;DHT22;11395;53.204;6.502;2022-12-10T00:24:25;20.70;54.20
22456;DHT22;11395;53.204;6.502;2022-12-10T00:26:51;20.70;54.20
22456;DHT22;11395;53.204;6.502;2022-12-10T00:29:18;20.60;54.20
22456;DHT22;11395;53.204;6.502;2022-12-10T00:31:44;20.60;54.00
22456;DHT22;11395;53.204;6.502;2022-12-10T00:34:11;20.60;54.20
22456;DHT22;11395;53.204;6.502;2022-12-10T00:36:42;20.60;54.20
22456;DHT22;11395;53.204;6.502;2022-12-10T00:39:10;20.60;54.20
22456;DHT22;11395;53.204;6.502;2022-12-10T00:41:37;20.50;54.30
22456;DHT22;11395;53.204;6.502;2022-12-10T00:44:04;20.50;54.20
22456;DHT22;11395;53.204;6.502;2022-12-10T00:46:31;20.50;54.10
22456;DHT22;11395;53.204;6.502;2022-12-10T00:48:58;20.40;54.20
22456;DHT22;11395;53.204;6.502;2022-12-10T00:51:25;20.40;54.30
22456;DHT22;11395;53.204;6.502;2022-12-10T00:53:53;20.40;54.40
22456;DHT22;11395;53.204;6.502;2022-12-10T00:56:22;20.30;54.30
22456;DHT22;11395;53.204;6.502;2022-12-10T00:58:49;20.30;54.60
22456;DHT22;11395;53.204;6.502;2022-12-10T01:10:25;20.00;54.20
22456;DHT22;11395;53.204;6.502;2022-12-10T01:12:51;19.90;55.10
22456;DHT22;11395;53.204;6.502;2022-12-10T01:15:17;19.80;55.20
22456;DHT22;11395;53.204;6.502;2022-12-10T01:17:44;19.80;55.20
22456;DHT22;11395;53.204;6.502;2022-12-10T01:20:13;19.80;55.20
22456;DHT22;11395;53.204;6.502;2022-12-10T01:22:39;19.80;55.20
22456;DHT22;11395;53.204;6.502;2022-12-10T01:25:06;19.80;55.20
22456;DHT22;11395;53.204;6.502;2022-12-10T01:27:32;19.80;54.90
22456;DHT22;11395;53.204;6.502;2022-12-10T01:29:58;19.80;54.90
22456;DHT22;11395;53.204;6.502;2022-12-10T01:32:24;19.80;54.80
22456;DHT22;11395;53.204;6.502;2022-12-10T01:34:50;19.70;54.80
22456;DHT22;11395;53.204;6.502;2022-12-10T01:37:17;19.70;54.80
22456;DHT22;11395;53.204;6.502;2022-12-10T01:39:43;19.70;54.90
22456;DHT22;11395;53.204;6.502;2022-12-10T01:42:12;19.70;54.80
22456;DHT22;11395;53.204;6.502;2022-12-10T01:47:09;19.60;54.60
22456;DHT22;11395;53.204;6.502;2022-12-10T01:49:38;19.60;54.70
22456;DHT22;11395;53.204;6.502;2022-12-10T01:52:07;19.50;54.60
22456;DHT22;11395;53.204;6.502;2022-12-10T01:54:38;19.50;54.70
22456;DHT22;11395;53.204;6.502;2022-12-10T01:57:13;19.50;54.70
22456;DHT22;11395;53.204;6.502;2022-12-10T01:59:41;19.50;54.80
22456;DHT22;11395;53.204;6.502;2022-12-10T02:05:44;19.40;54.30
22456;DHT22;11395;53.204;6.502;2022-12-10T02:08:25;19.20;54.90
22456;DHT22;11395;53.204;6.502;2022-12-10T02:11:16;19.20;55.40
22456;DHT22;11395;53.204;6.502;2022-12-10T02:14:14;19.10;55.10
22456;DHT22;11395;53.204;6.502;2022-12-10T02:17:02;19.10;55.20
22456;DHT22;11395;53.204;6.502;2022-12-10T02:22:01;19.10;55.20
22456;DHT22;11395;53.204;6.502;2022-12-10T02:24:34;19.00;55.20
22456;DHT22;11395;53.204;6.502;2022-12-10T02:27:04;19.00;55.20
22456;DHT22;11395;53.204;6.502;2022-12-10T02:29:32;19.00;55.10
22456;DHT22;11395;53.204;6.502;2022-12-10T02:32:05;19.00;55.10
22456;DHT22;11395;53.204;6.502;2022-12-10T02:34:38;18.90;55.10
22456;DHT22;11395;53.204;6.502;2022-12-10T02:37:39;18.90;55.10
22456;DHT22;11395;53.204;6.502;2022-12-10T02:40:13;18.90;55.10
22456;DHT22;11395;53.204;6.502;2022-12-10T02:42:46;18.90;55.10
22456;DHT22;11395;53.204;6.502;2022-12-10T02:45:16;18.80;55.10
22456;DHT22;11395;53.204;6.502;2022-12-10T02:47:43;18.80;55.20
22456;DHT22;11395;53.204;6.502;2022-12-10T02:50:11;18.80;55.30
22456;DHT22;11395;53.204;6.502;2022-12-10T02:52:39;18.80;55.40
22456;DHT22;11395;53.204;6.502;2022-12-10T02:55:05;18.70;55.30
22456;DHT22;11395;53.204;6.502;2022-12-10T03:00:22;18.70;55.40
22456;DHT22;11395;53.204;6.502;2022-12-10T03:03:02;18.70;55.30
22456;DHT22;11395;53.204;6.502;2022-12-10T03:13:16;18.60;55.60
22456;DHT22;11395;53.204;6.502;2022-12-10T03:15:45;18.60;55.50
22456;DHT22;11395;53.204;6.502;2022-12-10T03:18:12;18.60;55.50
22456;DHT22;11395;53.204;6.502;2022-12-10T03:20:44;18.70;55.40
22456;DHT22;11395;53.204;6.502;2022-12-10T03:23:15;18.70;55.30
22456;DHT22;11395;53.204;6.502;2022-12-10T03:25:43;18.80;55.10
22456;DHT22;11395;53.204;6.502;2022-12-10T03:28:10;18.80;55.00
22456;DHT22;11395;53.204;6.502;2022-12-10T03:30:38;18.80;55.00
22456;DHT22;11395;53.204;6.502;2022-12-10T03:33:05;18.80;54.80
22456;DHT22;11395;53.204;6.502;2022-12-10T03:35:32;18.80;54.80
22456;DHT22;11395;53.204;6.502;2022-12-10T03:37:59;18.90;54.80
22456;DHT22;11395;53.204;6.502;2022-12-10T03:40:25;18.90;54.60
22456;DHT22;11395;53.204;6.502;2022-12-10T03:42:52;18.90;54.50
22456;DHT22;11395;53.204;6.502;2022-12-10T03:45:18;18.90;54.40
22456;DHT22;11395;53.204;6.502;2022-12-10T03:47:44;18.90;54.50
22456;DHT22;11395;53.204;6.502;2022-12-10T03:50:11;18.90;54.40
22456;DHT22;11395;53.204;6.502;2022-12-10T03:52:37;18.90;54.40
22456;DHT22;11395;53.204;6.502;2022-12-10T03:55:04;18.80;54.60
22456;DHT22;11395;53.204;6.502;2022-12-10T03:57:33;18.80;54.80
22456;DHT22;11395;53.204;6.502;2022-12-10T04:00:00;18.80;54.60
22456;DHT22;11395;53.204;6.502;2022-12-10T04:02:26;18.80;54.50
22456;DHT22;11395;53.204;6.502;2022-12-10T04:04:52;18.80;54.50
22456;DHT22;11395;53.204;6.502;2022-12-10T04:07:18;18.80;54.50
22456;DHT22;11395;53.204;6.502;2022-12-10T04:09:44;18.80;54.70
22456;DHT22;11395;53.204;6.502;2022-12-10T04:12:11;18.80;54.80
22456;DHT22;11395;53.204;6.502;2022-12-10T04:14:37;18.90;55.00
22456;DHT22;11395;53.204;6.502;2022-12-10T04:17:35;18.90;55.00
22456;DHT22;11395;53.204;6.502;2022-12-10T04:20:02;19.00;55.00
22456;DHT22;11395;53.204;6.502;2022-12-10T04:22:28;19.00;54.90
22456;DHT22;11395;53.204;6.502;2022-12-10T04:25:13;19.10;54.90
22456;DHT22;11395;53.204;6.502;2022-12-10T04:27:58;19.20;54.70
22456;DHT22;11395;53.204;6.502;2022-12-10T04:30:24;19.30;54.50
22456;DHT22;11395;53.204;6.502;2022-12-10T04:32:51;19.40;54.30
22456;DHT22;11395;53.204;6.502;2022-12-10T04:35:17;19.40;54.20
22456;DHT22;11395;53.204;6.502;2022-12-10T04:37:44;19.50;54.10
22456;DHT22;11395;53.204;6.502;2022-12-10T04:40:10;19.60;54.00
22456;DHT22;11395;53.204;6.502;2022-12-10T04:42:37;19.80;53.90
22456;DHT22;11395;53.204;6.502;2022-12-10T04:45:03;19.90;53.80
22456;DHT22;11395;53.204;6.502;2022-12-10T04:47:29;20.00;53.70
22456;DHT22;11395;53.204;6.502;2022-12-10T04:49:56;20.00;53.50
22456;DHT22;11395;53.204;6.502;2022-12-10T04:52:22;20.20;53.40
22456;DHT22;11395;53.204;6.502;2022-12-10T04:54:48;20.20;53.20
22456;DHT22;11395;53.204;6.502;2022-12-10T04:57:14;20.30;53.10
22456;DHT22;11395;53.204;6.502;2022-12-10T04:59:40;20.40;53.00
22456;DHT22;11395;53.204;6.502;2022-12-10T05:02:07;20.50;52.90
22456;DHT22;11395;53.204;6.502;2022-12-10T05:04:33;20.50;52.80
22456;DHT22;11395;53.204;6.502;2022-12-10T05:07:00;20.60;52.80
22456;DHT22;11395;53.204;6.502;2022-12-10T05:09:26;20.60;52.70
22456;DHT22;11395;53.204;6.502;2022-12-10T05:11:52;20.60;52.60
22456;DHT22;11395;53.204;6.502;2022-12-10T05:14:18;20.60;52.50
22456;DHT22;11395;53.204;6.502;2022-12-10T05:16:45;20.70;52.50
22456;DHT22;11395;53.204;6.502;2022-12-10T05:19:11;20.70;52.40
22456;DHT22;11395;53.204;6.502;2022-12-10T05:21:37;20.70;52.30
22456;DHT22;11395;53.204;6.502;2022-12-10T05:24:22;20.80;52.30
22456;DHT22;11395;53.204;6.502;2022-12-10T05:26:48;20.90;52.30
22456;DHT22;11395;53.204;6.502;2022-12-10T05:29:17;20.90;52.30
22456;DHT22;11395;53.204;6.502;2022-12-10T05:31:44;21.00;52.10
22456;DHT22;11395;53.204;6.502;2022-12-10T05:34:10;21.10;52.00
22456;DHT22;11395;53.204;6.502;2022-12-10T05:36:37;21.20;52.00
22456;DHT22;11395;53.204;6.502;2022-12-10T05:39:03;21.30;51.90
22456;DHT22;11395;53.204;6.502;2022-12-10T05:41:33;21.50;51.80
22456;DHT22;11395;53.204;6.502;2022-12-10T05:44:00;21.60;51.70
22456;DHT22;11395;53.204;6.502;2022-12-10T05:46:29;21.70;51.50
22456;DHT22;11395;53.204;6.502;2022-12-10T05:48:56;21.80;51.40
22456;DHT22;11395;53.204;6.502;2022-12-10T05:51:26;21.90;51.30
22456;DHT22;11395;53.204;6.502;2022-12-10T05:53:54;22.00;51.20
22456;DHT22;11395;53.204;6.502;2022-12-10T05:56:22;22.10;51.10
22456;DHT22;11395;53.204;6.502;2022-12-10T05:58:50;22.20;51.10
22456;DHT22;11395;53.204;6.502;2022-12-10T06:01:20;22.30;51.00
22456;DHT22;11395;53.204;6.502;2022-12-10T06:03:46;22.40;50.90
22456;DHT22;11395;53.204;6.502;2022-12-10T06:06:13;22.50;50.80
22456;DHT22;11395;53.204;6.502;2022-12-10T06:08:40;22.50;50.70
22456;DHT22;11395;53.204;6.502;2022-12-10T06:11:10;22.60;50.60
22456;DHT22;11395;53.204;6.502;2022-12-10T06:13:37;22.60;50.40
22456;DHT22;11395;53.204;6.502;2022-12-10T06:16:08;22.70;50.40
22456;DHT22;11395;53.204;6.502;2022-12-10T06:18:35;22.70;50.30
22456;DHT22;11395;53.204;6.502;2022-12-10T06:21:11;22.70;50.30
22456;DHT22;11395;53.204;6.502;2022-12-10T06:23:38;22.70;50.30
22456;DHT22;11395;53.204;6.502;2022-12-10T06:26:09;22.70;50.10
22456;DHT22;11395;53.204;6.502;2022-12-10T06:28:36;22.70;50.20
22456;DHT22;11395;53.204;6.502;2022-12-10T06:31:03;22.70;50.30
22456;DHT22;11395;53.204;6.502;2022-12-10T06:33:30;22.70;50.30
22456;DHT22;11395;53.204;6.502;2022-12-10T06:35:56;22.60;50.40
22456;DHT22;11395;53.204;6.502;2022-12-10T06:38:22;22.60;50.30
22456;DHT22;11395;53.204;6.502;2022-12-10T06:40:49;22.60;50.40
22456;DHT22;11395;53.204;6.502;2022-12-10T06:43:15;22.50;50.40
22456;DHT22;11395;53.204;6.502;2022-12-10T06:45:42;22.50;50.60
22456;DHT22;11395;53.204;6.502;2022-12-10T06:48:09;22.50;50.50
22456;DHT22;11395;53.204;6.502;2022-12-10T06:50:37;22.40;50.50
22456;DHT22;11395;53.204;6.502;2022-12-10T06:53:03;22.40;50.60
22456;DHT22;11395;53.204;6.502;2022-12-10T06:55:29;22.40;50.50
22456;DHT22;11395;53.204;6.502;2022-12-10T06:57:57;22.40;50.50
22456;DHT22;11395;53.204;6.502;2022-12-10T07:00:23;22.50;50.50
22456;DHT22;11395;53.204;6.502;2022-12-10T07:02:49;22.50;50.40
22456;DHT22;11395;53.204;6.502;2022-12-10T07:05:16;22.60;50.50
22456;DHT22;11395;53.204;6.502;2022-12-10T07:07:42;22.60;50.30
22456;DHT22;11395;53.204;6.502;2022-12-10T07:10:09;22.70;50.20
22456;DHT22;11395;53.204;6.502;2022-12-10T07:12:35;22.80;50.20
22456;DHT22;11395;53.204;6.502;2022-12-10T07:15:02;22.80;50.10
22456;DHT22;11395;53.204;6.502;2022-12-10T07:17:30;22.90;50.10
22456;DHT22;11395;53.204;6.502;2022-12-10T07:19:57;22.90;50.00
22456;DHT22;11395;53.204;6.502;2022-12-10T07:22:23;22.90;50.00
22456;DHT22;11395;53.204;6.502;2022-12-10T07:24:49;22.90;50.00
22456;DHT22;11395;53.204;6.502;2022-12-10T07:27:16;22.90;50.00
22456;DHT22;11395;53.204;6.502;2022-12-10T07:29:43;22.90;50.00
22456;DHT22;11395;53.204;6.502;2022-12-10T07:32:10;22.90;50.00
22456;DHT22;11395;53.204;6.502;2022-12-10T07:34:36;22.90;50.00
22456;DHT22;11395;53.204;6.502;2022-12-10T07:37:03;22.90;50.70
22456;DHT22;11395;53.204;6.502;2022-12-10T07:39:29;22.90;50.10
22456;DHT22;11395;53.204;6.502;2022-12-10T07:41:55;22.90;50.30
22456;DHT22;11395;53.204;6.502;2022-12-10T07:44:23;22.80;50.20
22456;DHT22;11395;53.204;6.502;2022-12-10T07:46:52;22.70;50.20
22456;DHT22;11395;53.204;6.502;2022-12-10T07:49:19;22.70;50.40
22456;DHT22;11395;53.204;6.502;2022-12-10T07:51:49;22.70;50.10
22456;DHT22;11395;53.204;6.502;2022-12-10T07:54:16;22.60;49.90
22456;DHT22;11395;53.204;6.502;2022-12-10T07:56:43;22.50;50.20
22456;DHT22;11395;53.204;6.502;2022-12-10T07:59:09;22.40;50.20
22456;DHT22;11395;53.204;6.502;2022-12-10T08:01:36;22.40;50.60
22456;DHT22;11395;53.204;6.502;2022-12-10T08:04:03;22.40;50.60
22456;DHT22;11395;53.204;6.502;2022-12-10T08:06:29;22.30;50.50
22456;DHT22;11395;53.204;6.502;2022-12-10T08:08:57;22.40;50.60
22456;DHT22;11395;53.204;6.502;2022-12-10T08:11:23;22.40;50.70
22456;DHT22;11395;53.204;6.502;2022-12-10T08:13:50;22.50;50.90
22456;DHT22;11395;53.204;6.502;2022-12-10T08:16:21;22.50;51.00
22456;DHT22;11395;53.204;6.502;2022-12-10T08:18:51;22.60;50.90
22456;DHT22;11395;53.204;6.502;2022-12-10T08:21:21;22.60;51.10
22456;DHT22;11395;53.204;6.502;2022-12-10T08:23:48;22.70;50.90
22456;DHT22;11395;53.204;6.502;2022-12-10T08:26:20;22.70;50.90
22456;DHT22;11395;53.204;6.502;2022-12-10T08:28:48;22.70;50.70
22456;DHT22;11395;53.204;6.502;2022-12-10T08:31:16;22.80;50.80
22456;DHT22;11395;53.204;6.502;2022-12-10T08:33:42;22.80;50.70
22456;DHT22;11395;53.204;6.502;2022-12-10T08:36:11;22.80;50.80
22456;DHT22;11395;53.204;6.502;2022-12-10T08:38:39;22.80;50.70
22456;DHT22;11395;53.204;6.502;2022-12-10T08:41:07;22.70;50.70
22456;DHT22;11395;53.204;6.502;2022-12-10T08:43:34;22.70;50.60
22456;DHT22;11395;53.204;6.502;2022-12-10T08:46:00;22.60;50.80
22456;DHT22;11395;53.204;6.502;2022-12-10T08:48:27;22.60;50.90
22456;DHT22;11395;53.204;6.502;2022-12-10T08:50:53;22.60;51.00
22456;DHT22;11395;53.204;6.502;2022-12-10T08:53:19;22.50;51.30
22456;DHT22;11395;53.204;6.502;2022-12-10T08:55:45;22.40;51.20
22456;DHT22;11395;53.204;6.502;2022-12-10T08:58:14;22.40;51.50
22456;DHT22;11395;53.204;6.502;2022-12-10T09:00:40;22.30;51.50
22456;DHT22;11395;53.204;6.502;2022-12-10T09:03:08;22.30;51.50
22456;DHT22;11395;53.204;6.502;2022-12-10T09:05:35;22.30;51.60
22456;DHT22;11395;53.204;6.502;2022-12-10T09:08:01;22.30;51.90
22456;DHT22;11395;53.204;6.502;2022-12-10T09:10:27;22.20;52.10
22456;DHT22;11395;53.204;6.502;2022-12-10T09:12:53;22.30;52.10
22456;DHT22;11395;53.204;6.502;2022-12-10T09:15:20;22.30;52.00
22456;DHT22;11395;53.204;6.502;2022-12-10T09:17:46;22.30;52.00
22456;DHT22;11395;53.204;6.502;2022-12-10T09:20:12;22.30;51.90
22456;DHT22;11395;53.204;6.502;2022-12-10T09:22:39;22.40;52.00
22456;DHT22;11395;53.204;6.502;2022-12-10T09:25:06;22.40;52.00
22456;DHT22;11395;53.204;6.502;2022-12-10T09:27:33;22.50;51.90
22456;DHT22;11395;53.204;6.502;2022-12-10T09:29:59;22.60;51.90
22456;DHT22;11395;53.204;6.502;2022-12-10T09:32:26;22.60;51.60
22456;DHT22;11395;53.204;6.502;2022-12-10T09:34:53;22.70;51.70
22456;DHT22;11395;53.204;6.502;2022-12-10T09:37:19;22.70;51.50
22456;DHT22;11395;53.204;6.502;2022-12-10T09:39:46;22.80;51.50
22456;DHT22;11395;53.204;6.502;2022-12-10T09:42:21;22.80;51.50
22456;DHT22;11395;53.204;6.502;2022-12-10T09:47:18;22.80;51.40
22456;DHT22;11395;53.204;6.502;2022-12-10T09:52:36;22.70;51.30
22456;DHT22;11395;53.204;6.502;2022-12-10T09:55:19;22.70;51.30
22456;DHT22;11395;53.204;6.502;2022-12-10T09:57:51;22.70;51.20
22456;DHT22;11395;53.204;6.502;2022-12-10T10:02:59;22.60;51.20
22456;DHT22;11395;53.204;6.502;2022-12-10T10:05:27;22.50;51.30
22456;DHT22;11395;53.204;6.502;2022-12-10T10:08:05;22.50;51.30
22456;DHT22;11395;53.204;6.502;2022-12-10T10:10:37;22.40;51.30
22456;DHT22;11395;53.204;6.502;2022-12-10T10:15:36;22.40;51.50
22456;DHT22;11395;53.204;6.502;2022-12-10T10:20:47;22.40;51.50
22456;DHT22;11395;53.204;6.502;2022-12-10T10:23:15;22.40;51.70
22456;DHT22;11395;53.204;6.502;2022-12-10T10:25:42;22.40;51.60
22456;DHT22;11395;53.204;6.502;2022-12-10T10:28:11;22.50;51.60
22456;DHT22;11395;53.204;6.502;2022-12-10T10:30:44;22.50;51.50
22456;DHT22;11395;53.204;6.502;2022-12-10T10:33:13;22.60;51.50
22456;DHT22;11395;53.204;6.502;2022-12-10T10:35:53;22.60;51.40
22456;DHT22;11395;53.204;6.502;2022-12-10T10:38:23;22.70;51.40
22456;DHT22;11395;53.204;6.502;2022-12-10T10:40:55;22.70;51.20
22456;DHT22;11395;53.204;6.502;2022-12-10T10:43:23;22.80;51.20
22456;DHT22;11395;53.204;6.502;2022-12-10T10:48:24;22.90;51.10
22456;DHT22;11395;53.204;6.502;2022-12-10T10:50:52;22.90;50.90
22456;DHT22;11395;53.204;6.502;2022-12-10T10:55:47;22.90;50.90
22456;DHT22;11395;53.204;6.502;2022-12-10T10:58:20;22.90;50.90
22456;DHT22;11395;53.204;6.502;2022-12-10T11:01:13;22.90;50.80
22456;DHT22;11395;53.204;6.502;2022-12-10T11:03:48;22.90;50.60
22456;DHT22;11395;53.204;6.502;2022-12-10T11:06:15;22.80;50.60
22456;DHT22;11395;53.204;6.502;2022-12-10T11:08:43;22.80;50.70
22456;DHT22;11395;53.204;6.502;2022-12-10T11:11:16;22.80;50.70
22456;DHT22;11395;53.204;6.502;2022-12-10T11:13:43;22.70;50.70
22456;DHT22;11395;53.204;6.502;2022-12-10T11:16:20;22.60;50.70
22456;DHT22;11395;53.204;6.502;2022-12-10T11:19:00;22.60;50.80
22456;DHT22;11395;53.204;6.502;2022-12-10T11:21:32;22.60;50.90
22456;DHT22;11395;53.204;6.502;2022-12-10T11:23:59;22.50;50.90
22456;DHT22;11395;53.204;6.502;2022-12-10T11:27:04;22.50;51.10
22456;DHT22;11395;53.204;6.502;2022-12-10T11:37:38;22.40;51.20
22456;DHT22;11395;53.204;6.502;2022-12-10T11:40:56;22.50;51.20
22456;DHT22;11395;53.204;6.502;2022-12-10T11:56:55;22.70;51.00
22456;DHT22;11395;53.204;6.502;2022-12-10T11:59:55;22.70;50.90
22456;DHT22;11395;53.204;6.502;2022-12-10T12:02:36;22.80;50.90
22456;DHT22;11395;53.204;6.502;2022-12-10T12:08:14;22.80;50.80
22456;DHT22;11395;53.204;6.502;2022-12-10T12:10:57;22.80;50.80
22456;DHT22;11395;53.204;6.502;2022-12-10T12:16:26;22.80;50.80
22456;DHT22;11395;53.204;6.502;2022-12-10T12:18:59;22.70;50.80
22456;DHT22;11395;53.204;6.502;2022-12-10T12:21:26;22.70;50.70
22456;DHT22;11395;53.204;6.502;2022-12-10T12:32:20;22.50;50.90
22456;DHT22;11395;53.204;6.502;2022-12-10T12:37:25;22.40;51.10
22456;DHT22;11395;53.204;6.502;2022-12-10T12:42:52;22.40;51.20
22456;DHT22;11395;53.204;6.502;2022-12-10T12:45:24;22.40;51.30
22456;DHT22;11395;53.204;6.502;2022-12-10T12:48:04;22.40;51.30
22456;DHT22;11395;53.204;6.502;2022-12-10T12:50:53;22.50;51.30
22456;DHT22;11395;53.204;6.502;2022-12-10T12:53:22;22.50;51.40
22456;DHT22;11395;53.204;6.502;2022-12-10T12:56:13;22.60;51.40
22456;DHT22;11395;53.204;6.502;2022-12-10T13:01:40;22.60;51.40
22456;DHT22;11395;53.204;6.502;2022-12-10T13:04:08;22.70;51.40
22456;DHT22;11395;53.204;6.502;2022-12-10T13:06:36;22.70;51.30
22456;DHT22;11395;53.204;6.502;2022-12-10T13:11:41;22.70;51.20
22456;DHT22;11395;53.204;6.502;2022-12-10T13:30:03;22.60;51.20
22456;DHT22;11395;53.204;6.502;2022-12-10T13:42:45;22.30;51.60
22456;DHT22;11395;53.204;6.502;2022-12-10T13:45:32;22.30;51.70
22456;DHT22;11395;53.204;6.502;2022-12-10T13:48:26;22.30;51.80
22456;DHT22;11395;53.204;6.502;2022-12-10T13:54:23;22.30;51.90
22456;DHT22;11395;53.204;6.502;2022-12-10T13:59:44;22.40;51.80
22456;DHT22;11395;53.204;6.502;2022-12-10T14:07:46;22.50;51.60
22456;DHT22;11395;53.204;6.502;2022-12-10T14:10:16;22.60;51.60
22456;DHT22;11395;53.204;6.502;2022-12-10T14:12:44;22.60;51.50
22456;DHT22;11395;53.204;6.502;2022-12-10T14:15:20;22.70;51.50
22456;DHT22;11395;53.204;6.502;2022-12-10T14:18:03;22.70;51.50
22456;DHT22;11395;53.204;6.502;2022-12-10T14:20:32;22.70;51.40
22456;DHT22;11395;53.204;6.502;2022-12-10T14:23:04;22.70;51.50
22456;DHT22;11395;53.204;6.502;2022-12-10T14:25:51;22.70;52.20
22456;DHT22;11395;53.204;6.502;2022-12-10T14:28:18;22.70;51.80
22456;DHT22;11395;53.204;6.502;2022-12-10T14:30:46;22.70;52.00
22456;DHT22;11395;53.204;6.502;2022-12-10T14:33:16;22.70;52.10
22456;DHT22;11395;53.204;6.502;2022-12-10T14:35:47;22.60;52.10
22456;DHT22;11395;53.204;6.502;2022-12-10T14:38:40;22.60;52.00
22456;DHT22;11395;53.204;6.502;2022-12-10T14:41:07;22.60;52.00
22456;DHT22;11395;53.204;6.502;2022-12-10T14:43:37;22.60;52.10
22456;DHT22;11395;53.204;6.502;2022-12-10T14:46:10;22.60;52.10
22456;DHT22;11395;53.204;6.502;2022-12-10T14:48:41;22.50;52.10
22456;DHT22;11395;53.204;6.502;2022-12-10T14:51:16;22.50;52.10
22456;DHT22;11395;53.204;6.502;2022-12-10T14:53:42;22.50;52.20
22456;DHT22;11395;53.204;6.502;2022-12-10T14:56:14;22.50;52.30
22456;DHT22;11395;53.204;6.502;2022-12-10T14:59:09;22.40;52.30
22456;DHT22;11395;53.204;6.502;2022-12-10T15:01:41;22.40;52.40
22456;DHT22;11395;53.204;6.502;2022-12-10T15:04:14;22.30;52.40
22456;DHT22;11395;53.204;6.502;2022-12-10T15:06:42;22.30;52.40
22456;DHT22;11395;53.204;6.502;2022-12-10T15:09:19;22.30;52.50
22456;DHT22;11395;53.204;6.502;2022-12-10T15:11:56;22.30;52.40
22456;DHT22;11395;53.204;6.502;2022-12-10T15:14:23;22.30;52.50
22456;DHT22;11395;53.204;6.502;2022-12-10T15:16:51;22.40;52.50
22456;DHT22;11395;53.204;6.502;2022-12-10T15:24:42;22.60;52.70
22456;DHT22;11395;53.204;6.502;2022-12-10T15:27:35;22.70;52.70
22456;DHT22;11395;53.204;6.502;2022-12-10T15:30:25;22.80;52.50
22456;DHT22;11395;53.204;6.502;2022-12-10T15:32:58;22.80;52.40
22456;DHT22;11395;53.204;6.502;2022-12-10T15:35:25;22.80;52.40
22456;DHT22;11395;53.204;6.502;2022-12-10T15:37:52;22.80;52.40
22456;DHT22;11395;53.204;6.502;2022-12-10T15:40:28;22.90;52.40
22456;DHT22;11395;53.204;6.502;2022-12-10T15:45:49;22.80;52.40
22456;DHT22;11395;53.204;6.502;2022-12-10T15:48:15;22.80;52.60
22456;DHT22;11395;53.204;6.502;2022-12-10T15:50:44;22.80;52.40
22456;DHT22;11395;53.204;6.502;2022-12-10T15:53:13;22.80;52.50
22456;DHT22;11395;53.204;6.502;2022-12-10T15:55:40;22.80;52.70
22456;DHT22;11395;53.204;6.502;2022-12-10T15:58:14;22.80;52.40
22456;DHT22;11395;53.204;6.502;2022-12-10T16:00:41;22.80;52.20
22456;DHT22;11395;53.204;6.502;2022-12-10T16:03:11;22.80;51.90
22456;DHT22;11395;53.204;6.502;2022-12-10T16:05:39;22.60;46.30
22456;DHT22;11395;53.204;6.502;2022-12-10T16:08:22;22.00;49.40
22456;DHT22;11395;53.204;6.502;2022-12-10T16:10:51;22.00;51.30
22456;DHT22;11395;53.204;6.502;2022-12-10T16:13:24;22.00;51.60
22456;DHT22;11395;53.204;6.502;2022-12-10T16:16:05;22.10;52.00
22456;DHT22;11395;53.204;6.502;2022-12-10T16:18:31;22.10;51.80
22456;DHT22;11395;53.204;6.502;2022-12-10T16:20:58;22.20;51.70
22456;DHT22;11395;53.204;6.502;2022-12-10T16:23:25;22.20;51.60
22456;DHT22;11395;53.204;6.502;2022-12-10T16:25:51;22.20;51.60
22456;DHT22;11395;53.204;6.502;2022-12-10T16:28:20;22.30;51.30
22456;DHT22;11395;53.204;6.502;2022-12-10T16:30:49;22.30;51.50
22456;DHT22;11395;53.204;6.502;2022-12-10T16:33:16;22.30;51.60
22456;DHT22;11395;53.204;6.502;2022-12-10T16:35:47;22.40;51.70
22456;DHT22;11395;53.204;6.502;2022-12-10T16:38:14;22.40;51.60
22456;DHT22;11395;53.204;6.502;2022-12-10T16:40:42;22.50;51.50
22456;DHT22;11395;53.204;6.502;2022-12-10T16:43:22;22.60;51.50
22456;DHT22;11395;53.204;6.502;2022-12-10T16:45:50;22.60;51.50
22456;DHT22;11395;53.204;6.502;2022-12-10T16:48:17;22.70;51.40
22456;DHT22;11395;53.204;6.502;2022-12-10T16:50:45;22.70;51.40
22456;DHT22;11395;53.204;6.502;2022-12-10T16:53:26;22.70;51.40
22456;DHT22;11395;53.204;6.502;2022-12-10T16:55:54;22.80;51.40
22456;DHT22;11395;53.204;6.502;2022-12-10T16:58:21;22.80;51.40
22456;DHT22;11395;53.204;6.502;2022-12-10T17:00:50;22.80;51.10
22456;DHT22;11395;53.204;6.502;2022-12-10T17:03:20;22.80;51.10
22456;DHT22;11395;53.204;6.502;2022-12-10T17:08:18;22.70;50.80
22456;DHT22;11395;53.204;6.502;2022-12-10T17:10:45;22.70;50.80
22456;DHT22;11395;53.204;6.502;2022-12-10T17:13:31;22.70;51.00
22456;DHT22;11395;53.204;6.502;2022-12-10T17:15:58;22.60;50.90
22456;DHT22;11395;53.204;6.502;2022-12-10T17:18:25;22.60;50.90
22456;DHT22;11395;53.204;6.502;2022-12-10T17:20:51;22.60;51.10
22456;DHT22;11395;53.204;6.502;2022-12-10T17:23:19;22.50;50.80
22456;DHT22;11395;53.204;6.502;2022-12-10T17:25:45;22.50;50.90
22456;DHT22;11395;53.204;6.502;2022-12-10T17:28:18;22.50;50.80
22456;DHT22;11395;53.204;6.502;2022-12-10T17:30:46;22.50;51.30
22456;DHT22;11395;53.204;6.502;2022-12-10T17:33:14;22.40;51.20
22456;DHT22;11395;53.204;6.502;2022-12-10T17:35:43;22.40;51.20
22456;DHT22;11395;53.204;6.502;2022-12-10T17:38:18;22.40;51.30
22456;DHT22;11395;53.204;6.502;2022-12-10T17:40:45;22.30;51.50
22456;DHT22;11395;53.204;6.502;2022-12-10T17:43:12;22.40;51.80
22456;DHT22;11395;53.204;6.502;2022-12-10T17:45:40;22.40;51.90
22456;DHT22;11395;53.204;6.502;2022-12-10T17:48:10;22.40;52.60
22456;DHT22;11395;53.204;6.502;2022-12-10T17:50:38;22.40;52.10
22456;DHT22;11395;53.204;6.502;2022-12-10T17:53:06;22.40;52.10
22456;DHT22;11395;53.204;6.502;2022-12-10T17:55:55;22.50;52.10
22456;DHT22;11395;53.204;6.502;2022-12-10T17:58:22;22.50;51.90
22456;DHT22;11395;53.204;6.502;2022-12-10T18:00:50;22.60;51.80
22456;DHT22;11395;53.204;6.502;2022-12-10T18:03:17;22.60;51.70
22456;DHT22;11395;53.204;6.502;2022-12-10T18:05:44;22.60;51.80
22456;DHT22;11395;53.204;6.502;2022-12-10T18:08:16;22.70;51.90
22456;DHT22;11395;53.204;6.502;2022-12-10T18:10:44;22.70;51.80
22456;DHT22;11395;53.204;6.502;2022-12-10T18:13:10;22.70;51.90
22456;DHT22;11395;53.204;6.502;2022-12-10T18:15:37;22.70;51.70
22456;DHT22;11395;53.204;6.502;2022-12-10T18:18:03;22.70;51.70